Airport ID:1G3
Update Time (UTC):13/08/2020 09:13
Wind Speed (Knots):1
Wind Direction (Magnetic):10
Temperature (°C):16
Dew Point (°C):14
Humidity (%):87
Altimeter (inHg):30.11
Density Altitude (Feet):
Visibility:10+
Clouds (Hundreds of feet):***
Present Weather:
METAR:METAR 1G3 130910Z AUTO 00000KT 10SM 16/14 A3011 RMK A01

The data displayed is for advisory purposes only and is not to be used for flight planning or operations.